sensor_id;sensor_type;location;lat;lon;timestamp;P1;durP1;ratioP1;P2;durP2;ratioP2
18893;SDS011;9579;49.488;8.226;2023-03-01T00:01:56;13.47;;;12.17;;
18893;SDS011;9579;49.488;8.226;2023-03-01T00:04:43;13.37;;;12.17;;
18893;SDS011;9579;49.488;8.226;2023-03-01T00:07:31;14.03;;;12.83;;
18893;SDS011;9579;49.488;8.226;2023-03-01T00:10:18;15.70;;;14.20;;
18893;SDS011;9579;49.488;8.226;2023-03-01T00:13:06;13.63;;;12.33;;
18893;SDS011;9579;49.488;8.226;2023-03-01T00:15:53;13.70;;;12.30;;
18893;SDS011;9579;49.488;8.226;2023-03-01T00:18:41;12.87;;;11.67;;
18893;SDS011;9579;49.488;8.226;2023-03-01T00:21:28;13.43;;;12.13;;
18893;SDS011;9579;49.488;8.226;2023-03-01T00:24:15;13.90;;;12.50;;
18893;SDS011;9579;49.488;8.226;2023-03-01T00:27:03;14.57;;;13.10;;
18893;SDS011;9579;49.488;8.226;2023-03-01T00:29:53;14.07;;;12.77;;
18893;SDS011;9579;49.488;8.226;2023-03-01T00:32:41;14.73;;;13.33;;
18893;SDS011;9579;49.488;8.226;2023-03-01T00:35:28;14.97;;;13.57;;
18893;SDS011;9579;49.488;8.226;2023-03-01T00:38:15;14.43;;;13.13;;
18893;SDS011;9579;49.488;8.226;2023-03-01T00:41:04;13.87;;;12.57;;
18893;SDS011;9579;49.488;8.226;2023-03-01T00:43:51;14.13;;;12.83;;
18893;SDS011;9579;49.488;8.226;2023-03-01T00:46:41;13.93;;;12.63;;
18893;SDS011;9579;49.488;8.226;2023-03-01T00:49:32;14.03;;;12.73;;
18893;SDS011;9579;49.488;8.226;2023-03-01T00:52:19;13.60;;;12.40;;
18893;SDS011;9579;49.488;8.226;2023-03-01T00:55:07;13.90;;;12.60;;
18893;SDS011;9579;49.488;8.226;2023-03-01T00:57:54;14.50;;;13.17;;
18893;SDS011;9579;49.488;8.226;2023-03-01T01:00:41;14.40;;;13.00;;
18893;SDS011;9579;49.488;8.226;2023-03-01T01:03:30;13.83;;;12.53;;
18893;SDS011;9579;49.488;8.226;2023-03-01T01:06:17;14.70;;;13.30;;
18893;SDS011;9579;49.488;8.226;2023-03-01T01:09:06;15.30;;;13.70;;
18893;SDS011;9579;49.488;8.226;2023-03-01T01:12:02;13.87;;;12.57;;
18893;SDS011;9579;49.488;8.226;2023-03-01T01:14:49;14.07;;;12.77;;
18893;SDS011;9579;49.488;8.226;2023-03-01T01:17:36;14.83;;;13.33;;
18893;SDS011;9579;49.488;8.226;2023-03-01T01:20:25;14.30;;;12.97;;
18893;SDS011;9579;49.488;8.226;2023-03-01T01:23:13;15.00;;;13.60;;
18893;SDS011;9579;49.488;8.226;2023-03-01T01:26:03;15.60;;;14.03;;
18893;SDS011;9579;49.488;8.226;2023-03-01T01:28:51;15.57;;;13.97;;
18893;SDS011;9579;49.488;8.226;2023-03-01T01:31:40;15.03;;;13.73;;
18893;SDS011;9579;49.488;8.226;2023-03-01T01:34:28;14.90;;;13.40;;
18893;SDS011;9579;49.488;8.226;2023-03-01T01:37:17;16.60;;;14.97;;
18893;SDS011;9579;49.488;8.226;2023-03-01T01:40:05;15.30;;;13.90;;
18893;SDS011;9579;49.488;8.226;2023-03-01T01:42:53;14.77;;;13.37;;
18893;SDS011;9579;49.488;8.226;2023-03-01T01:45:40;15.73;;;14.33;;
18893;SDS011;9579;49.488;8.226;2023-03-01T01:48:28;15.90;;;14.40;;
18893;SDS011;9579;49.488;8.226;2023-03-01T01:51:27;15.67;;;14.07;;
18893;SDS011;9579;49.488;8.226;2023-03-01T01:54:25;15.67;;;14.27;;
18893;SDS011;9579;49.488;8.226;2023-03-01T01:57:18;16.37;;;14.77;;
18893;SDS011;9579;49.488;8.226;2023-03-01T02:00:11;15.90;;;14.40;;
18893;SDS011;9579;49.488;8.226;2023-03-01T02:03:01;15.70;;;14.23;;
18893;SDS011;9579;49.488;8.226;2023-03-01T02:05:53;16.63;;;14.87;;
18893;SDS011;9579;49.488;8.226;2023-03-01T02:08:47;17.60;;;15.90;;
18893;SDS011;9579;49.488;8.226;2023-03-01T02:11:38;17.20;;;15.60;;
18893;SDS011;9579;49.488;8.226;2023-03-01T02:14:25;16.47;;;14.83;;
18893;SDS011;9579;49.488;8.226;2023-03-01T02:17:13;15.47;;;14.07;;
18893;SDS011;9579;49.488;8.226;2023-03-01T02:20:05;16.27;;;14.67;;
18893;SDS011;9579;49.488;8.226;2023-03-01T02:23:01;16.20;;;14.70;;
18893;SDS011;9579;49.488;8.226;2023-03-01T02:25:51;16.50;;;15.00;;
18893;SDS011;9579;49.488;8.226;2023-03-01T02:28:43;16.60;;;14.90;;
18893;SDS011;9579;49.488;8.226;2023-03-01T02:31:31;17.10;;;15.50;;
18893;SDS011;9579;49.488;8.226;2023-03-01T02:34:31;17.47;;;15.77;;
18893;SDS011;9579;49.488;8.226;2023-03-01T02:37:19;16.57;;;14.87;;
18893;SDS011;9579;49.488;8.226;2023-03-01T02:40:10;17.10;;;15.50;;
18893;SDS011;9579;49.488;8.226;2023-03-01T02:43:02;17.13;;;15.43;;
18893;SDS011;9579;49.488;8.226;2023-03-01T02:45:57;16.90;;;15.30;;
18893;SDS011;9579;49.488;8.226;2023-03-01T02:48:46;16.73;;;15.17;;
18893;SDS011;9579;49.488;8.226;2023-03-01T02:51:42;17.73;;;16.03;;
18893;SDS011;9579;49.488;8.226;2023-03-01T02:54:36;16.50;;;15.00;;
18893;SDS011;9579;49.488;8.226;2023-03-01T02:57:27;16.93;;;15.23;;
18893;SDS011;9579;49.488;8.226;2023-03-01T03:00:17;16.77;;;15.17;;
18893;SDS011;9579;49.488;8.226;2023-03-01T03:03:08;13.10;;;11.77;;
18893;SDS011;9579;49.488;8.226;2023-03-01T03:05:56;16.43;;;14.83;;
18893;SDS011;9579;49.488;8.226;2023-03-01T03:08:44;16.23;;;14.73;;
18893;SDS011;9579;49.488;8.226;2023-03-01T03:11:31;17.13;;;15.53;;
18893;SDS011;9579;49.488;8.226;2023-03-01T03:14:18;17.47;;;15.77;;
18893;SDS011;9579;49.488;8.226;2023-03-01T03:17:05;17.00;;;15.40;;
18893;SDS011;9579;49.488;8.226;2023-03-01T03:19:54;17.27;;;15.57;;
18893;SDS011;9579;49.488;8.226;2023-03-01T03:22:41;17.70;;;15.90;;
18893;SDS011;9579;49.488;8.226;2023-03-01T03:25:28;17.50;;;15.80;;
18893;SDS011;9579;49.488;8.226;2023-03-01T03:28:16;17.03;;;15.43;;
18893;SDS011;9579;49.488;8.226;2023-03-01T03:31:05;17.57;;;15.87;;
18893;SDS011;9579;49.488;8.226;2023-03-01T03:33:53;17.87;;;16.17;;
18893;SDS011;9579;49.488;8.226;2023-03-01T03:36:42;16.67;;;15.07;;
18893;SDS011;9579;49.488;8.226;2023-03-01T03:39:29;18.47;;;16.70;;
18893;SDS011;9579;49.488;8.226;2023-03-01T03:42:20;17.37;;;15.80;;
18893;SDS011;9579;49.488;8.226;2023-03-01T03:45:07;17.67;;;15.97;;
18893;SDS011;9579;49.488;8.226;2023-03-01T03:47:55;17.47;;;15.87;;
18893;SDS011;9579;49.488;8.226;2023-03-01T03:50:46;17.50;;;15.90;;
18893;SDS011;9579;49.488;8.226;2023-03-01T03:53:36;17.23;;;15.53;;
18893;SDS011;9579;49.488;8.226;2023-03-01T03:56:23;17.70;;;15.90;;
18893;SDS011;9579;49.488;8.226;2023-03-01T03:59:11;18.10;;;16.37;;
18893;SDS011;9579;49.488;8.226;2023-03-01T04:01:58;17.97;;;16.17;;
18893;SDS011;9579;49.488;8.226;2023-03-01T04:04:45;17.93;;;16.23;;
18893;SDS011;9579;49.488;8.226;2023-03-01T04:07:35;18.77;;;16.87;;
18893;SDS011;9579;49.488;8.226;2023-03-01T04:10:23;17.20;;;15.40;;
18893;SDS011;9579;49.488;8.226;2023-03-01T04:13:11;17.07;;;15.57;;
18893;SDS011;9579;49.488;8.226;2023-03-01T04:15:59;16.47;;;14.97;;
18893;SDS011;9579;49.488;8.226;2023-03-01T04:18:46;17.17;;;15.67;;
18893;SDS011;9579;49.488;8.226;2023-03-01T04:21:34;19.40;;;17.47;;
18893;SDS011;9579;49.488;8.226;2023-03-01T04:24:23;19.27;;;17.37;;
18893;SDS011;9579;49.488;8.226;2023-03-01T04:27:12;19.53;;;17.73;;
18893;SDS011;9579;49.488;8.226;2023-03-01T04:29:59;19.40;;;17.60;;
18893;SDS011;9579;49.488;8.226;2023-03-01T04:32:46;19.07;;;17.27;;
18893;SDS011;9579;49.488;8.226;2023-03-01T04:35:36;18.97;;;17.17;;
18893;SDS011;9579;49.488;8.226;2023-03-01T04:38:23;18.07;;;16.40;;
18893;SDS011;9579;49.488;8.226;2023-03-01T04:41:11;18.53;;;16.73;;
18893;SDS011;9579;49.488;8.226;2023-03-01T04:44:00;18.70;;;17.00;;
18893;SDS011;9579;49.488;8.226;2023-03-01T04:46:48;18.13;;;16.40;;
18893;SDS011;9579;49.488;8.226;2023-03-01T04:49:36;19.33;;;17.53;;
18893;SDS011;9579;49.488;8.226;2023-03-01T04:52:25;19.70;;;17.70;;
18893;SDS011;9579;49.488;8.226;2023-03-01T04:55:13;18.83;;;16.97;;
18893;SDS011;9579;49.488;8.226;2023-03-01T04:58:00;20.90;;;18.90;;
18893;SDS011;9579;49.488;8.226;2023-03-01T05:00:51;18.67;;;16.87;;
18893;SDS011;9579;49.488;8.226;2023-03-01T05:03:39;19.30;;;17.40;;
18893;SDS011;9579;49.488;8.226;2023-03-01T05:06:27;18.93;;;17.03;;
18893;SDS011;9579;49.488;8.226;2023-03-01T05:09:14;18.70;;;16.83;;
18893;SDS011;9579;49.488;8.226;2023-03-01T05:12:01;19.13;;;17.33;;
18893;SDS011;9579;49.488;8.226;2023-03-01T05:14:49;18.70;;;16.90;;
18893;SDS011;9579;49.488;8.226;2023-03-01T05:17:38;18.90;;;17.20;;
18893;SDS011;9579;49.488;8.226;2023-03-01T05:20:25;20.27;;;18.37;;
18893;SDS011;9579;49.488;8.226;2023-03-01T05:23:13;19.77;;;17.87;;
18893;SDS011;9579;49.488;8.226;2023-03-01T05:26:02;20.40;;;18.33;;
18893;SDS011;9579;49.488;8.226;2023-03-01T05:28:51;20.50;;;18.50;;
18893;SDS011;9579;49.488;8.226;2023-03-01T05:31:41;20.07;;;18.17;;
18893;SDS011;9579;49.488;8.226;2023-03-01T05:34:31;19.77;;;17.87;;
18893;SDS011;9579;49.488;8.226;2023-03-01T05:37:20;19.83;;;18.03;;
18893;SDS011;9579;49.488;8.226;2023-03-01T05:40:08;20.50;;;18.60;;
18893;SDS011;9579;49.488;8.226;2023-03-01T05:43:00;22.17;;;19.33;;
18893;SDS011;9579;49.488;8.226;2023-03-01T05:45:50;23.27;;;19.43;;
18893;SDS011;9579;49.488;8.226;2023-03-01T05:48:37;20.07;;;17.93;;
18893;SDS011;9579;49.488;8.226;2023-03-01T05:51:26;22.00;;;19.80;;
18893;SDS011;9579;49.488;8.226;2023-03-01T05:54:14;23.23;;;20.83;;
18893;SDS011;9579;49.488;8.226;2023-03-01T05:57:01;22.30;;;20.00;;
18893;SDS011;9579;49.488;8.226;2023-03-01T05:59:48;21.53;;;19.43;;
18893;SDS011;9579;49.488;8.226;2023-03-01T06:02:35;21.57;;;19.33;;
18893;SDS011;9579;49.488;8.226;2023-03-01T06:05:23;19.90;;;17.93;;
18893;SDS011;9579;49.488;8.226;2023-03-01T06:08:13;20.30;;;18.40;;
18893;SDS011;9579;49.488;8.226;2023-03-01T06:11:00;19.60;;;17.70;;
18893;SDS011;9579;49.488;8.226;2023-03-01T06:13:47;20.10;;;18.27;;
18893;SDS011;9579;49.488;8.226;2023-03-01T06:16:34;19.57;;;17.63;;
18893;SDS011;9579;49.488;8.226;2023-03-01T06:19:21;21.30;;;19.20;;
18893;SDS011;9579;49.488;8.226;2023-03-01T06:22:09;21.77;;;19.47;;
18893;SDS011;9579;49.488;8.226;2023-03-01T06:24:57;21.30;;;19.20;;
18893;SDS011;9579;49.488;8.226;2023-03-01T06:27:45;20.80;;;18.80;;
18893;SDS011;9579;49.488;8.226;2023-03-01T06:30:33;21.83;;;19.63;;
18893;SDS011;9579;49.488;8.226;2023-03-01T06:33:21;20.33;;;18.20;;
18893;SDS011;9579;49.488;8.226;2023-03-01T06:36:12;21.70;;;19.50;;
18893;SDS011;9579;49.488;8.226;2023-03-01T06:39:03;20.67;;;18.57;;
18893;SDS011;9579;49.488;8.226;2023-03-01T06:41:52;23.20;;;20.90;;
18893;SDS011;9579;49.488;8.226;2023-03-01T06:44:39;21.57;;;19.47;;
18893;SDS011;9579;49.488;8.226;2023-03-01T06:47:26;23.30;;;21.00;;
18893;SDS011;9579;49.488;8.226;2023-03-01T06:50:14;23.17;;;20.87;;
18893;SDS011;9579;49.488;8.226;2023-03-01T06:53:02;26.53;;;23.87;;
18893;SDS011;9579;49.488;8.226;2023-03-01T06:55:53;22.30;;;20.10;;
18893;SDS011;9579;49.488;8.226;2023-03-01T06:58:48;24.80;;;22.10;;
18893;SDS011;9579;49.488;8.226;2023-03-01T07:01:35;21.17;;;19.13;;
18893;SDS011;9579;49.488;8.226;2023-03-01T07:04:22;21.47;;;19.50;;
18893;SDS011;9579;49.488;8.226;2023-03-01T07:07:10;19.53;;;17.73;;
18893;SDS011;9579;49.488;8.226;2023-03-01T07:10:00;19.93;;;18.13;;
18893;SDS011;9579;49.488;8.226;2023-03-01T07:12:47;19.47;;;17.67;;
18893;SDS011;9579;49.488;8.226;2023-03-01T07:15:36;19.50;;;17.73;;
18893;SDS011;9579;49.488;8.226;2023-03-01T07:18:23;19.13;;;17.30;;
18893;SDS011;9579;49.488;8.226;2023-03-01T07:21:11;18.13;;;16.47;;
18893;SDS011;9579;49.488;8.226;2023-03-01T07:23:59;18.97;;;17.27;;
18893;SDS011;9579;49.488;8.226;2023-03-01T07:26:47;18.73;;;17.03;;
18893;SDS011;9579;49.488;8.226;2023-03-01T07:29:35;19.10;;;17.33;;
18893;SDS011;9579;49.488;8.226;2023-03-01T07:32:37;19.43;;;17.63;;
18893;SDS011;9579;49.488;8.226;2023-03-01T07:35:25;20.03;;;18.13;;
18893;SDS011;9579;49.488;8.226;2023-03-01T07:38:13;19.27;;;17.37;;
18893;SDS011;9579;49.488;8.226;2023-03-01T07:41:01;21.17;;;19.07;;
18893;SDS011;9579;49.488;8.226;2023-03-01T07:43:51;19.07;;;17.27;;
18893;SDS011;9579;49.488;8.226;2023-03-01T07:46:45;20.23;;;18.33;;
18893;SDS011;9579;49.488;8.226;2023-03-01T07:49:34;19.77;;;17.97;;
18893;SDS011;9579;49.488;8.226;2023-03-01T07:52:21;19.27;;;17.40;;
18893;SDS011;9579;49.488;8.226;2023-03-01T07:55:08;20.17;;;18.17;;
18893;SDS011;9579;49.488;8.226;2023-03-01T07:57:55;20.40;;;18.27;;
18893;SDS011;9579;49.488;8.226;2023-03-01T08:00:43;19.80;;;17.70;;
18893;SDS011;9579;49.488;8.226;2023-03-01T08:03:30;19.80;;;17.90;;
18893;SDS011;9579;49.488;8.226;2023-03-01T08:06:25;20.37;;;18.27;;
18893;SDS011;9579;49.488;8.226;2023-03-01T08:09:12;18.70;;;16.93;;
18893;SDS011;9579;49.488;8.226;2023-03-01T08:11:59;19.53;;;17.50;;
18893;SDS011;9579;49.488;8.226;2023-03-01T08:14:46;17.77;;;16.07;;
18893;SDS011;9579;49.488;8.226;2023-03-01T08:17:33;18.20;;;16.60;;
18893;SDS011;9579;49.488;8.226;2023-03-01T08:20:20;19.13;;;17.20;;
18893;SDS011;9579;49.488;8.226;2023-03-01T08:23:08;19.10;;;17.30;;
18893;SDS011;9579;49.488;8.226;2023-03-01T08:26:02;18.30;;;16.60;;
18893;SDS011;9579;49.488;8.226;2023-03-01T08:28:51;20.23;;;18.27;;
18893;SDS011;9579;49.488;8.226;2023-03-01T08:31:38;19.67;;;17.77;;
18893;SDS011;9579;49.488;8.226;2023-03-01T08:34:26;21.10;;;19.00;;
18893;SDS011;9579;49.488;8.226;2023-03-01T08:37:13;20.27;;;18.37;;
18893;SDS011;9579;49.488;8.226;2023-03-01T08:40:02;21.97;;;19.87;;
18893;SDS011;9579;49.488;8.226;2023-03-01T08:42:52;21.73;;;19.63;;
18893;SDS011;9579;49.488;8.226;2023-03-01T08:45:40;24.33;;;22.03;;
18893;SDS011;9579;49.488;8.226;2023-03-01T08:48:27;21.77;;;19.77;;
18893;SDS011;9579;49.488;8.226;2023-03-01T08:51:15;19.13;;;17.33;;
18893;SDS011;9579;49.488;8.226;2023-03-01T08:54:04;18.57;;;16.77;;
18893;SDS011;9579;49.488;8.226;2023-03-01T08:56:53;20.50;;;18.57;;
18893;SDS011;9579;49.488;8.226;2023-03-01T08:59:40;20.70;;;18.80;;
18893;SDS011;9579;49.488;8.226;2023-03-01T09:02:28;19.20;;;17.40;;
18893;SDS011;9579;49.488;8.226;2023-03-01T09:05:15;19.53;;;17.70;;
18893;SDS011;9579;49.488;8.226;2023-03-01T09:08:03;23.00;;;20.83;;
18893;SDS011;9579;49.488;8.226;2023-03-01T09:10:50;18.70;;;17.00;;
18893;SDS011;9579;49.488;8.226;2023-03-01T09:13:39;18.43;;;16.73;;
18893;SDS011;9579;49.488;8.226;2023-03-01T09:16:27;18.00;;;16.40;;
18893;SDS011;9579;49.488;8.226;2023-03-01T09:19:15;19.00;;;17.13;;
18893;SDS011;9579;49.488;8.226;2023-03-01T09:22:02;17.70;;;16.10;;
18893;SDS011;9579;49.488;8.226;2023-03-01T09:24:50;19.53;;;17.63;;
18893;SDS011;9579;49.488;8.226;2023-03-01T09:27:37;17.80;;;16.13;;
18893;SDS011;9579;49.488;8.226;2023-03-01T09:30:25;18.80;;;17.10;;
18893;SDS011;9579;49.488;8.226;2023-03-01T09:33:13;19.30;;;17.50;;
18893;SDS011;9579;49.488;8.226;2023-03-01T09:36:00;19.00;;;17.00;;
18893;SDS011;9579;49.488;8.226;2023-03-01T09:38:49;20.20;;;18.20;;
18893;SDS011;9579;49.488;8.226;2023-03-01T09:41:49;19.50;;;17.60;;
18893;SDS011;9579;49.488;8.226;2023-03-01T09:44:42;19.33;;;17.40;;
18893;SDS011;9579;49.488;8.226;2023-03-01T09:47:34;18.37;;;16.67;;
18893;SDS011;9579;49.488;8.226;2023-03-01T09:50:23;19.30;;;17.50;;
18893;SDS011;9579;49.488;8.226;2023-03-01T09:53:13;19.73;;;17.83;;
18893;SDS011;9579;49.488;8.226;2023-03-01T09:56:04;19.50;;;17.80;;
18893;SDS011;9579;49.488;8.226;2023-03-01T09:58:59;19.43;;;17.50;;
18893;SDS011;9579;49.488;8.226;2023-03-01T10:01:58;18.60;;;16.90;;
18893;SDS011;9579;49.488;8.226;2023-03-01T10:04:52;19.17;;;17.37;;
18893;SDS011;9579;49.488;8.226;2023-03-01T10:07:44;18.43;;;16.63;;
18893;SDS011;9579;49.488;8.226;2023-03-01T10:10:42;19.23;;;17.27;;
18893;SDS011;9579;49.488;8.226;2023-03-01T10:13:34;19.23;;;17.33;;
18893;SDS011;9579;49.488;8.226;2023-03-01T10:16:38;19.80;;;18.00;;
18893;SDS011;9579;49.488;8.226;2023-03-01T10:19:30;19.60;;;17.80;;
18893;SDS011;9579;49.488;8.226;2023-03-01T10:22:22;18.03;;;16.37;;
18893;SDS011;9579;49.488;8.226;2023-03-01T10:25:14;18.70;;;17.07;;
18893;SDS011;9579;49.488;8.226;2023-03-01T10:28:02;19.67;;;17.80;;
18893;SDS011;9579;49.488;8.226;2023-03-01T10:30:56;19.70;;;17.90;;
18893;SDS011;9579;49.488;8.226;2023-03-01T10:33:45;20.80;;;18.70;;
18893;SDS011;9579;49.488;8.226;2023-03-01T10:36:33;19.80;;;17.83;;
18893;SDS011;9579;49.488;8.226;2023-03-01T10:39:23;19.63;;;17.93;;
18893;SDS011;9579;49.488;8.226;2023-03-01T10:42:19;18.90;;;17.17;;
18893;SDS011;9579;49.488;8.226;2023-03-01T10:45:15;20.23;;;18.40;;
18893;SDS011;9579;49.488;8.226;2023-03-01T10:48:11;20.93;;;18.93;;
18893;SDS011;9579;49.488;8.226;2023-03-01T10:51:06;20.67;;;18.67;;
18893;SDS011;9579;49.488;8.226;2023-03-01T10:53:54;20.17;;;17.90;;
18893;SDS011;9579;49.488;8.226;2023-03-01T10:56:49;20.13;;;18.23;;
18893;SDS011;9579;49.488;8.226;2023-03-01T10:59:39;20.37;;;18.57;;
18893;SDS011;9579;49.488;8.226;2023-03-01T11:02:27;19.83;;;18.03;;
18893;SDS011;9579;49.488;8.226;2023-03-01T11:05:20;21.10;;;19.10;;
18893;SDS011;9579;49.488;8.226;2023-03-01T11:08:12;19.43;;;17.73;;
18893;SDS011;9579;49.488;8.226;2023-03-01T11:11:06;20.77;;;18.87;;
18893;SDS011;9579;49.488;8.226;2023-03-01T11:14:15;20.60;;;18.73;;
18893;SDS011;9579;49.488;8.226;2023-03-01T11:17:11;19.80;;;18.10;;
18893;SDS011;9579;49.488;8.226;2023-03-01T11:20:06;19.17;;;17.47;;
18893;SDS011;9579;49.488;8.226;2023-03-01T11:23:05;20.83;;;18.83;;
18893;SDS011;9579;49.488;8.226;2023-03-01T11:25:56;20.23;;;18.43;;
18893;SDS011;9579;49.488;8.226;2023-03-01T11:28:49;19.90;;;18.10;;
18893;SDS011;9579;49.488;8.226;2023-03-01T11:32:02;20.53;;;18.63;;
18893;SDS011;9579;49.488;8.226;2023-03-01T11:35:19;20.80;;;18.83;;
18893;SDS011;9579;49.488;8.226;2023-03-01T11:38:34;18.70;;;16.90;;
18893;SDS011;9579;49.488;8.226;2023-03-01T11:44:21;28.47;;;25.57;;
18893;SDS011;9579;49.488;8.226;2023-03-01T11:45:16;23.07;;;20.90;;
18893;SDS011;9579;49.488;8.226;2023-03-01T11:51:55;21.10;;;19.13;;
18893;SDS011;9579;49.488;8.226;2023-03-01T11:55:12;19.00;;;17.20;;
18893;SDS011;9579;49.488;8.226;2023-03-01T11:58:29;20.13;;;18.42;;
18893;SDS011;9579;49.488;8.226;2023-03-01T12:01:51;18.98;;;17.20;;
18893;SDS011;9579;49.488;8.226;2023-03-01T12:12:43;20.65;;;18.75;;
18893;SDS011;9579;49.488;8.226;2023-03-01T12:16:26;19.95;;;18.05;;
18893;SDS011;9579;49.488;8.226;2023-03-01T12:19:33;21.33;;;19.33;;
18893;SDS011;9579;49.488;8.226;2023-03-01T12:22:43;24.75;;;22.38;;
18893;SDS011;9579;49.488;8.226;2023-03-01T12:25:37;20.93;;;18.93;;
18893;SDS011;9579;49.488;8.226;2023-03-01T12:28:35;19.30;;;17.60;;
18893;SDS011;9579;49.488;8.226;2023-03-01T12:31:52;32.83;;;29.77;;
18893;SDS011;9579;49.488;8.226;2023-03-01T12:38:37;19.80;;;18.00;;
18893;SDS011;9579;49.488;8.226;2023-03-01T12:44:51;20.42;;;18.52;;
18893;SDS011;9579;49.488;8.226;2023-03-01T12:47:51;19.20;;;17.42;;
18893;SDS011;9579;49.488;8.226;2023-03-01T12:50:51;21.00;;;19.10;;
18893;SDS011;9579;49.488;8.226;2023-03-01T12:53:39;20.15;;;18.35;;
18893;SDS011;9579;49.488;8.226;2023-03-01T12:56:30;18.58;;;16.85;;
18893;SDS011;9579;49.488;8.226;2023-03-01T12:59:24;17.48;;;15.88;;
18893;SDS011;9579;49.488;8.226;2023-03-01T13:02:25;17.42;;;15.82;;
18893;SDS011;9579;49.488;8.226;2023-03-01T13:05:26;17.52;;;15.98;;
18893;SDS011;9579;49.488;8.226;2023-03-01T13:08:22;19.67;;;17.98;;
18893;SDS011;9579;49.488;8.226;2023-03-01T13:11:19;19.30;;;17.65;;
18893;SDS011;9579;49.488;8.226;2023-03-01T13:17:32;18.60;;;16.83;;
18893;SDS011;9579;49.488;8.226;2023-03-01T13:20:33;16.80;;;15.30;;
18893;SDS011;9579;49.488;8.226;2023-03-01T13:23:34;18.80;;;17.10;;
18893;SDS011;9579;49.488;8.226;2023-03-01T13:26:23;18.23;;;16.63;;
18893;SDS011;9579;49.488;8.226;2023-03-01T13:29:11;18.02;;;16.33;;
18893;SDS011;9579;49.488;8.226;2023-03-01T13:32:20;18.15;;;16.48;;
18893;SDS011;9579;49.488;8.226;2023-03-01T13:38:37;17.95;;;16.27;;
18893;SDS011;9579;49.488;8.226;2023-03-01T13:41:50;16.73;;;15.23;;
18893;SDS011;9579;49.488;8.226;2023-03-01T13:44:38;17.27;;;15.60;;
18893;SDS011;9579;49.488;8.226;2023-03-01T13:47:27;15.88;;;14.45;;
18893;SDS011;9579;49.488;8.226;2023-03-01T13:50:16;16.27;;;14.77;;
18893;SDS011;9579;49.488;8.226;2023-03-01T13:53:09;15.70;;;14.20;;
18893;SDS011;9579;49.488;8.226;2023-03-01T13:56:00;15.95;;;14.45;;
18893;SDS011;9579;49.488;8.226;2023-03-01T13:58:53;15.63;;;14.02;;
18893;SDS011;9579;49.488;8.226;2023-03-01T14:01:45;15.30;;;13.90;;
18893;SDS011;9579;49.488;8.226;2023-03-01T14:04:39;14.95;;;13.55;;
18893;SDS011;9579;49.488;8.226;2023-03-01T14:07:27;15.00;;;13.68;;
18893;SDS011;9579;49.488;8.226;2023-03-01T14:10:17;14.13;;;12.55;;
18893;SDS011;9579;49.488;8.226;2023-03-01T14:13:08;14.00;;;12.60;;
18893;SDS011;9579;49.488;8.226;2023-03-01T14:16:15;13.60;;;12.20;;
18893;SDS011;9579;49.488;8.226;2023-03-01T14:19:16;14.13;;;12.80;;
18893;SDS011;9579;49.488;8.226;2023-03-01T14:22:11;13.43;;;12.23;;
18893;SDS011;9579;49.488;8.226;2023-03-01T14:25:04;14.23;;;12.75;;
18893;SDS011;9579;49.488;8.226;2023-03-01T14:28:13;12.38;;;11.30;;
18893;SDS011;9579;49.488;8.226;2023-03-01T14:34:19;11.90;;;10.70;;
18893;SDS011;9579;49.488;8.226;2023-03-01T14:37:10;13.18;;;11.80;;
18893;SDS011;9579;49.488;8.226;2023-03-01T14:40:05;12.63;;;11.50;;
18893;SDS011;9579;49.488;8.226;2023-03-01T14:43:10;12.40;;;11.20;;
18893;SDS011;9579;49.488;8.226;2023-03-01T14:46:04;12.30;;;11.20;;
18893;SDS011;9579;49.488;8.226;2023-03-01T14:48:51;11.85;;;10.65;;
18893;SDS011;9579;49.488;8.226;2023-03-01T14:55:59;12.02;;;10.93;;
18893;SDS011;9579;49.488;8.226;2023-03-01T15:03:13;13.75;;;12.45;;
18893;SDS011;9579;49.488;8.226;2023-03-01T15:10:06;13.30;;;12.15;;
18893;SDS011;9579;49.488;8.226;2023-03-01T15:13:24;13.82;;;12.52;;
18893;SDS011;9579;49.488;8.226;2023-03-01T15:16:22;13.35;;;12.15;;
18893;SDS011;9579;49.488;8.226;2023-03-01T15:19:16;13.35;;;12.07;;
18893;SDS011;9579;49.488;8.226;2023-03-01T15:22:12;13.93;;;12.50;;
18893;SDS011;9579;49.488;8.226;2023-03-01T15:25:01;13.13;;;11.83;;
18893;SDS011;9579;49.488;8.226;2023-03-01T15:27:49;13.23;;;12.03;;
18893;SDS011;9579;49.488;8.226;2023-03-01T15:30:38;13.32;;;12.02;;
18893;SDS011;9579;49.488;8.226;2023-03-01T15:33:29;13.87;;;12.40;;
18893;SDS011;9579;49.488;8.226;2023-03-01T15:36:36;13.40;;;11.90;;
18893;SDS011;9579;49.488;8.226;2023-03-01T15:39:30;12.17;;;11.07;;
18893;SDS011;9579;49.488;8.226;2023-03-01T15:45:27;12.20;;;11.00;;
18893;SDS011;9579;49.488;8.226;2023-03-01T15:48:18;11.33;;;10.23;;
18893;SDS011;9579;49.488;8.226;2023-03-01T15:51:09;12.60;;;10.97;;
18893;SDS011;9579;49.488;8.226;2023-03-01T15:54:03;13.47;;;11.17;;
18893;SDS011;9579;49.488;8.226;2023-03-01T15:56:53;17.77;;;11.53;;
18893;SDS011;9579;49.488;8.226;2023-03-01T15:59:41;22.97;;;11.63;;
18893;SDS011;9579;49.488;8.226;2023-03-01T16:02:29;11.50;;;10.13;;
18893;SDS011;9579;49.488;8.226;2023-03-01T16:36:32;13.83;;;11.83;;
18893;SDS011;9579;49.488;8.226;2023-03-01T16:49:48;13.23;;;11.23;;
18893;SDS011;9579;49.488;8.226;2023-03-01T17:10:19;18.40;;;16.17;;
18893;SDS011;9579;49.488;8.226;2023-03-01T17:13:18;27.60;;;23.50;;
18893;SDS011;9579;49.488;8.226;2023-03-01T17:16:26;30.37;;;24.67;;
18893;SDS011;9579;49.488;8.226;2023-03-01T18:08:51;14.63;;;12.60;;
18893;SDS011;9579;49.488;8.226;2023-03-01T18:14:28;13.70;;;12.40;;
18893;SDS011;9579;49.488;8.226;2023-03-01T18:17:33;13.77;;;12.37;;
18893;SDS011;9579;49.488;8.226;2023-03-01T18:20:25;14.20;;;12.80;;
18893;SDS011;9579;49.488;8.226;2023-03-01T18:23:15;13.83;;;11.80;;
18893;SDS011;9579;49.488;8.226;2023-03-01T18:28:36;13.93;;;12.53;;
18893;SDS011;9579;49.488;8.226;2023-03-01T18:31:31;13.93;;;12.60;;
18893;SDS011;9579;49.488;8.226;2023-03-01T18:34:34;15.60;;;13.27;;
18893;SDS011;9579;49.488;8.226;2023-03-01T18:37:29;13.93;;;12.53;;
18893;SDS011;9579;49.488;8.226;2023-03-01T18:40:34;15.07;;;13.47;;
18893;SDS011;9579;49.488;8.226;2023-03-01T18:43:39;15.13;;;13.53;;
18893;SDS011;9579;49.488;8.226;2023-03-01T18:46:44;15.87;;;13.50;;
18893;SDS011;9579;49.488;8.226;2023-03-01T18:49:48;14.67;;;13.27;;
18893;SDS011;9579;49.488;8.226;2023-03-01T18:53:03;15.23;;;13.73;;
18893;SDS011;9579;49.488;8.226;2023-03-01T18:56:16;15.70;;;14.10;;
18893;SDS011;9579;49.488;8.226;2023-03-01T18:58:55;14.87;;;13.37;;
18893;SDS011;9579;49.488;8.226;2023-03-01T19:01:43;14.90;;;13.50;;
18893;SDS011;9579;49.488;8.226;2023-03-01T19:07:07;14.80;;;13.40;;
18893;SDS011;9579;49.488;8.226;2023-03-01T19:10:03;18.37;;;16.57;;
18893;SDS011;9579;49.488;8.226;2023-03-01T19:13:18;18.20;;;16.27;;
18893;SDS011;9579;49.488;8.226;2023-03-01T19:21:48;17.47;;;15.63;;
18893;SDS011;9579;49.488;8.226;2023-03-01T19:24:38;19.43;;;17.37;;
18893;SDS011;9579;49.488;8.226;2023-03-01T19:27:25;19.87;;;17.77;;
18893;SDS011;9579;49.488;8.226;2023-03-01T19:30:19;19.27;;;16.87;;
18893;SDS011;9579;49.488;8.226;2023-03-01T19:33:24;21.53;;;16.63;;
18893;SDS011;9579;49.488;8.226;2023-03-01T19:38:50;20.80;;;18.60;;
18893;SDS011;9579;49.488;8.226;2023-03-01T19:41:39;21.20;;;18.90;;
18893;SDS011;9579;49.488;8.226;2023-03-01T19:44:40;18.57;;;16.67;;
18893;SDS011;9579;49.488;8.226;2023-03-01T19:47:36;18.80;;;17.00;;
18893;SDS011;9579;49.488;8.226;2023-03-01T19:50:28;19.50;;;17.50;;